KDTW/DTW METAR and TAF weather

Enter ICAO airport designator
Station Type Date Time Source
KDTW METAR 2022/06/28 13:53 UTC NOAA

KDTW 281353Z VRB06KT 4SM HZ FEW250 20/08 A3027 RMK AO2 SLP247 T02000078


Station Type Date Time Source
KDTW Decoded METAR 2022/06/28 13:53 UTC NOAA

DETROIT METROPOLITAN, MI, United States (KDTW) 42-14N 83-20W 195M
Jun 28, 2022 - 09:53 AM EDT / 2022.06.28 1353 UTC
Wind: Variable at 7 MPH (6 KT):0
Visibility: 4 mile(s):0
Sky conditions: mostly clear
Weather: haze
Temperature: 68.0 F (20.0 C)
Dew Point: 46.0 F (7.8 C)
Relative Humidity: 45%
Pressure (altimeter): 30.27 in. Hg (1025 hPa)
ob: KDTW 281353Z VRB06KT 4SM HZ FEW250 20/08 A3027 RMK AO2 SLP247 T02000078
cycle: 14

Station Type Date Time Source
KDTW TAF 2022/06/28 12:22 UTC NOAA

TAF KDTW 281120Z 2812/2918 28003KT P6SM SKC
FM281500 22006KT P6SM SKC
FM290200 18006KT P6SM SCT120 BKN200
FM290900 24008KT P6SM SCT045 OVC070
FM291000 22005KT P6SM -SHRA OVC060
TEMPO 2912/2915 5SM -RA OVC040
FM291500 24007KT P6SM BKN040

Example: see airport list